Bookmark and Share
Track history (hours):
 

Pagadder

Last reported at 2014-Apr-25 04:30 UTC. Time now 2014-Apr-25 05:46 UTC.
Position S 21°36' E 115°01'.

Length 90 m; draft 2.6 m.

Type: Other ship. MMSI: 377594000.

NotesDate/timePositionNaut miles runAvg speedWind from/ knotsBaromVisibWave heightAir tempDewpointWater temp
2014-Apr-25 04:30S 21°36' E 115°01'3 3.1
2014-Apr-25 03:33S 21°39' E 115°02'0 0.0
2014-Apr-25 02:30S 21°39' E 115°02'0 0.0
2014-Apr-25 01:26S 21°39' E 115°02'0 0.0
2014-Apr-25 00:32S 21°39' E 115°02'0 0.0
2014-Apr-24 23:32S 21°39' E 115°02'0 0.1
2014-Apr-24 22:32S 21°39' E 115°02'0 0.0
2014-Apr-24 21:32S 21°39' E 115°02'0 0.0
2014-Apr-24 20:32S 21°39' E 115°02'0 0.0
2014-Apr-24 19:29S 21°39' E 115°02'0 0.0
2014-Apr-24 18:29S 21°39' E 115°02'0 0.0
2014-Apr-24 17:32S 21°39' E 115°02'0 0.0
2014-Apr-24 16:32S 21°39' E 115°02'0 0.1
2014-Apr-24 15:32S 21°39' E 115°02'0 0.0
2014-Apr-24 14:32S 21°39' E 115°02'0 0.0
2014-Apr-24 13:32S 21°39' E 115°02'0 0.1
2014-Apr-24 12:32S 21°39' E 115°02'0 0.0
2014-Apr-24 11:29S 21°39' E 115°02'0 0.0
2014-Apr-24 10:32S 21°39' E 115°02'0 0.0
2014-Apr-24 09:32S 21°39' E 115°02'0 0.0
2014-Apr-24 08:20S 21°39' E 115°02'4 5.3
2014-Apr-24 07:33S 21°35' E 115°04'7 7.1
2014-Apr-24 06:30S 21°30' E 115°09'0 0.0
2014-Apr-24 05:30S 21°30' E 115°09'0 0.0
2014-Apr-24 04:30S 21°30' E 115°09'0 0.0
2014-Apr-24 03:33S 21°30' E 115°09'0 0.0
2014-Apr-24 02:33S 21°30' E 115°09'0 0.0
2014-Apr-24 01:33S 21°30' E 115°09'0 0.0
2014-Apr-24 00:30S 21°30' E 115°09'0 0.0
2014-Apr-23 23:30S 21°30' E 115°09'0 0.0
2014-Apr-23 22:33S 21°30' E 115°09'0 0.0
2014-Apr-23 21:33S 21°30' E 115°09'0 0.0
2014-Apr-23 20:30S 21°30' E 115°09'0 0.0
2014-Apr-23 19:33S 21°30' E 115°09'0 0.0
2014-Apr-23 18:24S 21°30' E 115°09'4 5.2
2014-Apr-23 17:33S 21°33' E 115°06'8 6.9
2014-Apr-23 16:28S 21°39' E 115°01'0 0.1
2014-Apr-23 15:28S 21°39' E 115°01'8 8.8
2014-Apr-23 14:33S 21°32' E 115°06'0 0.4
2014-Apr-23 13:33S 21°32' E 115°06'8 8.2
2014-Apr-23 12:33S 21°38' E 115°01'0 0.1
2014-Apr-23 11:33S 21°38' E 115°01'8 7.9
2014-Apr-23 10:34S 21°32' E 115°06'3 2.5
2014-Apr-23 09:33S 21°30' E 115°08'9 8.7
2014-Apr-23 08:33S 21°37' E 115°02'2 1.9
2014-Apr-23 07:33S 21°39' E 115°01'0 0.0
2014-Apr-23 06:33S 21°39' E 115°01'0 0.0
2014-Apr-23 05:33S 21°39' E 115°01'9 6.3
2014-Apr-23 04:04S 21°31' E 115°07'2 4.4
2014-Apr-23 03:33S 21°30' E 115°09'6 5.8
2014-Apr-23 02:33S 21°34' E 115°05'6 5.3
2014-Apr-23 01:26S 21°39' E 115°01'0 0.0
2014-Apr-23 00:32S 21°39' E 115°01'1 0.9
2014-Apr-22 23:33S 21°39' E 115°02'0 0.0
2014-Apr-22 22:33S 21°39' E 115°02'0 0.0
2014-Apr-22 21:30S 21°39' E 115°02'0 0.0
2014-Apr-22 20:30S 21°39' E 115°02'0 0.1
2014-Apr-22 19:30S 21°39' E 115°02'0 0.0
2014-Apr-22 18:30S 21°39' E 115°02'0 0.0
2014-Apr-22 17:33S 21°39' E 115°02'0 0.0
2014-Apr-22 16:33S 21°39' E 115°02'2 2.2
2014-Apr-22 15:33S 21°37' E 115°03'9 8.6
2014-Apr-22 14:33S 21°30' E 115°08'0 0.5
2014-Apr-22 13:33S 21°30' E 115°09'8 7.7
2014-Apr-22 12:33S 21°35' E 115°03'4 4.1
2014-Apr-22 11:33S 21°39' E 115°01'0 0.3
2014-Apr-22 10:33S 21°39' E 115°01'0 0.2
2014-Apr-22 09:32S 21°38' E 115°01'6 6.6
2014-Apr-22 08:33S 21°33' E 115°05'3 3.4
2014-Apr-22 07:33S 21°31' E 115°07'9 8.5
2014-Apr-22 06:33S 21°37' E 115°02'2 1.4
2014-Apr-22 05:24S 21°39' E 115°01'1 1.7
2014-Apr-22 04:33S 21°38' E 115°02'6 6.2
2014-Apr-22 03:33S 21°33' E 115°06'4 4.4
2014-Apr-22 02:34S 21°29' E 115°09'6 6.3
2014-Apr-22 01:33S 21°34' E 115°05'5 5.4
2014-Apr-22 00:33S 21°38' E 115°01'0 0.4
2014-Apr-21 23:34S 21°39' E 115°01'8 8.4
2014-Apr-21 22:33S 21°32' E 115°06'2 1.8
2014-Apr-21 21:33S 21°30' E 115°07'8 7.7
2014-Apr-21 20:33S 21°37' E 115°02'3 2.3
2014-Apr-21 19:28S 21°39' E 115°01'0 0.3
2014-Apr-21 18:34S 21°39' E 115°01'8 8.0
2014-Apr-21 17:33S 21°32' E 115°06'3 3.1
2014-Apr-21 16:33S 21°30' E 115°08'9 8.8
2014-Apr-21 15:33S 21°37' E 115°02'2 2.2
2014-Apr-21 14:33S 21°39' E 115°01'0 0.3
2014-Apr-21 13:28S 21°39' E 115°01'2 1.9
2014-Apr-21 12:33S 21°37' E 115°02'8 7.8
2014-Apr-21 11:33S 21°31' E 115°07'2 2.1
2014-Apr-21 10:33S 21°30' E 115°08'8 7.7
2014-Apr-21 09:33S 21°36' E 115°03'4 3.7
2014-Apr-21 08:33S 21°39' E 115°01'5 5.4
2014-Apr-21 07:33S 21°35' E 115°04'7 6.4
2014-Apr-21 06:31S 21°30' E 115°09'4 3.8
2014-Apr-21 05:33S 21°32' E 115°06'8 8.1
2014-Apr-21 04:33S 21°39' E 115°01'0 0.2
2014-Apr-21 03:32S 21°39' E 115°01'2 1.6
2014-Apr-21 02:33S 21°38' E 115°02'9 8.6
2014-Apr-21 01:33S 21°31' E 115°07'1 1.0
2014-Apr-21 00:33S 21°30' E 115°08'7 6.9
2014-Apr-20 23:33S 21°35' E 115°03'4 3.7
2014-Apr-20 22:26S 21°39' E 115°01'0 0.0
2014-Apr-20 21:26S 21°39' E 115°01'5 5.7
2014-Apr-20 20:33S 21°35' E 115°04'7 6.9
2014-Apr-20 19:33S 21°30' E 115°09'4 3.9
2014-Apr-20 18:33S 21°32' E 115°06'8 7.9
2014-Apr-20 17:33S 21°39' E 115°01'0 0.3
2014-Apr-20 16:33S 21°39' E 115°01'9 8.6
2014-Apr-20 15:33S 21°31' E 115°06'1 1.4
2014-Apr-20 14:33S 21°30' E 115°07'9 8.7
2014-Apr-20 13:33S 21°37' E 115°02'1 1.1
2014-Apr-20 12:33S 21°38' E 115°01'8 8.1
2014-Apr-20 11:34S 21°32' E 115°06'3 2.9
2014-Apr-20 10:33S 21°30' E 115°09'8 7.8
2014-Apr-20 09:33S 21°36' E 115°03'4 3.3
2014-Apr-20 08:25S 21°39' E 115°01'0 0.0
2014-Apr-20 07:28S 21°39' E 115°01'2 1.8
2014-Apr-20 06:33S 21°38' E 115°02'9 8.9
2014-Apr-20 05:33S 21°30' E 115°08'0 0.1
2014-Apr-20 04:33S 21°30' E 115°08'9 8.5
2014-Apr-20 03:33S 21°37' E 115°02'2 2.1
2014-Apr-20 02:33S 21°39' E 115°01'0 0.1
2014-Apr-20 01:33S 21°39' E 115°01'4 4.3
2014-Apr-20 00:33S 21°36' E 115°03'8 7.6
2014-Apr-19 23:33S 21°30' E 115°09'5 5.4
2014-Apr-19 22:33S 21°34' E 115°05'6 5.6
2014-Apr-19 21:24S 21°39' E 115°01'1 1.0
2014-Apr-19 20:33S 21°38' E 115°01'8 8.4
2014-Apr-19 19:33S 21°31' E 115°07'1 0.5
2014-Apr-19 18:33S 21°32' E 115°06'8 7.6
2014-Apr-19 17:33S 21°38' E 115°01'1 1.0
2014-Apr-19 16:30S 21°39' E 115°01'7 7.9
2014-Apr-19 15:33S 21°33' E 115°05'4 4.0
2014-Apr-19 14:33S 21°30' E 115°08'9 8.5
2014-Apr-19 13:33S 21°36' E 115°03'3 3.0
2014-Apr-19 12:33S 21°39' E 115°01'4 4.0
2014-Apr-19 11:33S 21°36' E 115°03'8 8.4
2014-Apr-19 10:34S 21°29' E 115°09'5 4.6
2014-Apr-19 09:34S 21°33' E 115°06'7 6.7
2014-Apr-19 08:32S 21°38' E 115°01'1 0.9
2014-Apr-19 07:32S 21°39' E 115°01'1 1.1
2014-Apr-19 06:33S 21°38' E 115°01'7 7.3
2014-Apr-19 05:33S 21°32' E 115°06'4 3.9
2014-Apr-19 04:33S 21°29' E 115°09'8 8.4
2014-Apr-19 03:33S 21°36' E 115°03'4 3.7
2014-Apr-19 02:31S 21°39' E 115°01'0 0.0
2014-Apr-19 01:31S 21°39' E 115°01'5 4.1
2014-Apr-19 00:24S 21°35' E 115°04'6 7.6
2014-Apr-18 23:33S 21°30' E 115°08'4 3.8
2014-Apr-18 22:33S 21°33' E 115°05'7 7.2
2014-Apr-18 21:33S 21°39' E 115°01'2 2.4
2014-Apr-18 20:34S 21°37' E 115°02'9 8.9
2014-Apr-18 19:33S 21°30' E 115°08'4 4.3
2014-Apr-18 18:33S 21°33' E 115°05'6 5.9
2014-Apr-18 17:33S 21°38' E 115°01'1 1.2
2014-Apr-18 16:31S 21°39' E 115°01'0 0.0
2014-Apr-18 15:31S 21°39' E 115°01'8 8.0
2014-Apr-18 14:33S 21°33' E 115°06'4 4.4
2014-Apr-18 13:33S 21°29' E 115°09'10 8.6
2014-Apr-18 12:21S 21°37' E 115°02'2 2.4
2014-Apr-18 11:33S 21°39' E 115°01'6 6.4
2014-Apr-18 10:34S 21°34' E 115°05'6 5.7
2014-Apr-18 09:33S 21°30' E 115°09'8 7.8
2014-Apr-18 08:34S 21°35' E 115°03'4 4.3
2014-Apr-18 07:33S 21°39' E 115°01'0 0.0
2014-Apr-18 06:30S 21°39' E 115°01'0 0.0
2014-Apr-18 05:33S 21°39' E 115°01'0 0.0
2014-Apr-18 04:33S 21°39' E 115°01'3 2.8
2014-Apr-18 03:33S 21°37' E 115°02'6 6.3
2014-Apr-18 02:33S 21°32' E 115°06'2 1.6
2014-Apr-18 01:33S 21°30' E 115°07'8 8.4
2014-Apr-18 00:33S 21°37' E 115°02'2 2.1
2014-Apr-17 23:31S 21°39' E 115°01'1 0.9
2014-Apr-17 22:31S 21°38' E 115°01'3 2.9
2014-Apr-17 21:33S 21°36' E 115°03'8 8.4
2014-Apr-17 20:34S 21°29' E 115°09'6 5.5
2014-Apr-17 19:33S 21°34' E 115°05'7 6.6
2014-Apr-17 18:33S 21°39' E 115°01'1 0.9
2014-Apr-17 17:30S 21°38' E 115°02'0 0.0
2014-Apr-17 16:27S 21°38' E 115°02'0 0.0
2014-Apr-17 15:33S 21°39' E 115°02'0 0.0
2014-Apr-17 14:33S 21°39' E 115°02'0 0.5
2014-Apr-17 13:33S 21°38' E 115°01'9 8.5
2014-Apr-17 12:33S 21°31' E 115°07'1 0.6
2014-Apr-17 11:33S 21°32' E 115°06'8 8.0
2014-Apr-17 10:33S 21°38' E 115°01'1 1.3
2014-Apr-17 09:33S 21°39' E 115°01'3 3.3
2014-Apr-17 08:33S 21°36' E 115°03'8 8.4
2014-Apr-17 07:34S 21°30' E 115°08'4 3.9
2014-Apr-17 06:33S 21°33' E 115°06'8 7.6
2014-Apr-17 05:33S 21°39' E 115°01'0 0.2
2014-Apr-17 04:28S 21°39' E 115°01'2 2.2
2014-Apr-17 03:30S 21°37' E 115°02'5 5.0
2014-Apr-17 02:33S 21°34' E 115°05'6 5.6
2014-Apr-17 01:33S 21°30' E 115°09'6 6.0
2014-Apr-17 00:33S 21°34' E 115°05'6 6.3
2014-Apr-16 23:33S 21°39' E 115°01'2 1.9
2014-Apr-16 22:33S 21°38' E 115°02'0 0.3
2014-Apr-16 21:33S 21°38' E 115°02'9 8.8
2014-Apr-16 20:33S 21°31' E 115°07'0 0.2
2014-Apr-16 19:33S 21°31' E 115°07'8 7.7
2014-Apr-16 18:34S 21°37' E 115°02'3 2.5
2014-Apr-16 17:30S 21°39' E 115°01'6 6.6
2014-Apr-16 16:34S 21°34' E 115°05'6 6.0
2014-Apr-16 15:33S 21°30' E 115°09'8 7.9
2014-Apr-16 14:33S 21°35' E 115°03'4 4.2
2014-Apr-16 13:31S 21°39' E 115°01'5 4.7
2014-Apr-16 12:33S 21°35' E 115°03'8 7.9
2014-Apr-16 11:33S 21°30' E 115°09'4 3.7
2014-Apr-16 10:33S 21°32' E 115°06'8 8.0
2014-Apr-16 09:33S 21°39' E 115°01'1 0.8
2014-Apr-16 08:32S 21°39' E 115°01'0 0.0
2014-Apr-16 07:32S 21°39' E 115°01'7 7.1
2014-Apr-16 06:33S 21°33' E 115°05'6 5.5
2014-Apr-16 05:33S 21°30' E 115°09'5 5.0
2014-Apr-16 04:29S 21°33' E 115°05'7 7.6
2014-Apr-16 03:33S 21°39' E 115°01'0 0.1
2014-Apr-16 02:32S 21°39' E 115°01'1 0.8
2014-Apr-16 01:34S 21°39' E 115°01'1 0.5
2014-Apr-16 00:29S 21°39' E 115°02'0 0.0
2014-Apr-15 23:32S 21°39' E 115°02'0 0.0
2014-Apr-15 22:32S 21°39' E 115°02'0 0.0
2014-Apr-15 21:29S 21°39' E 115°02'0 0.1
2014-Apr-15 20:29S 21°39' E 115°02'0 0.0
2014-Apr-15 19:26S 21°39' E 115°02'0 0.0
2014-Apr-15 18:32S 21°39' E 115°02'0 0.0
2014-Apr-15 17:29S 21°39' E 115°02'0 0.0
2014-Apr-15 16:29S 21°39' E 115°02'7 7.6
2014-Apr-15 15:34S 21°33' E 115°06'4 4.4
2014-Apr-15 14:33S 21°30' E 115°09'5 2.7
2014-Apr-15 12:34S 21°33' E 115°05'7 6.9
2014-Apr-15 11:31S 21°39' E 115°01'2 2.5
2014-Apr-15 10:34S 21°37' E 115°02'8 8.0
2014-Apr-15 09:34S 21°31' E 115°07'1 1.5
2014-Apr-15 08:34S 21°32' E 115°06'8 8.1
2014-Apr-15 07:33S 21°39' E 115°01'0 0.5
2014-Apr-15 06:34S 21°38' E 115°01'9 9.3
2014-Apr-15 05:34S 21°31' E 115°07'  

Dump ship's entire track history

sailing weather and tide predictions

Pagadder — J8B3995 — position and weather